createdAt,value
2023-05-08T00:01:54.662Z,98652.31
2023-05-08T00:04:42.421Z,98649.47
2023-05-08T00:07:31.873Z,98651.97
2023-05-08T00:10:19.816Z,98653.81
2023-05-08T00:13:07.694Z,98661.31
2023-05-08T00:15:55.780Z,98655.44
2023-05-08T00:18:44.557Z,98660.78
2023-05-08T00:21:32.721Z,98657.91
2023-05-08T00:24:21.814Z,98657.59
2023-05-08T00:27:09.802Z,98650.91
2023-05-08T00:29:58.128Z,98652.59
2023-05-08T00:32:47.017Z,98649.44
2023-05-08T00:35:35.143Z,98649.91
2023-05-08T00:38:23.222Z,98653.75
2023-05-08T00:41:12.635Z,98649.75
2023-05-08T00:44:00.266Z,98653.75
2023-05-08T00:46:48.625Z,98652.75
2023-05-08T00:49:36.843Z,98662.50
2023-05-08T00:52:24.894Z,98664.56
2023-05-08T00:55:13.170Z,98654.16
2023-05-08T00:58:02.889Z,98661.16
2023-05-08T01:00:55.415Z,98665.31
2023-05-08T01:03:44.664Z,98665.09
2023-05-08T01:06:34.048Z,98675.78
2023-05-08T01:09:21.966Z,98669.09
2023-05-08T01:12:21.202Z,98674.09
2023-05-08T01:15:17.468Z,98675.75
2023-05-08T01:18:14.407Z,98672.41
2023-05-08T01:21:17.526Z,98682.72
2023-05-08T01:24:24.475Z,98688.72
2023-05-08T01:27:50.162Z,98691.72
2023-05-08T01:31:06.668Z,98685.03
2023-05-08T01:34:05.978Z,98692.03
2023-05-08T01:37:00.747Z,98694.38
2023-05-08T01:39:56.574Z,98697.72
2023-05-08T01:42:50.502Z,98691.22
2023-05-08T01:45:43.280Z,98698.38
2023-05-08T01:48:35.234Z,98698.03
2023-05-08T01:51:28.454Z,98696.31
2023-05-08T01:54:22.682Z,98695.59
2023-05-08T01:57:13.403Z,98704.06
2023-05-08T02:00:03.766Z,98699.59
2023-05-08T02:02:53.567Z,98705.25
2023-05-08T02:05:43.078Z,98705.25
2023-05-08T02:08:35.665Z,98705.38
2023-05-08T02:11:26.288Z,98702.56
2023-05-08T02:14:15.967Z,98707.06
2023-05-08T02:17:05.350Z,98710.88
2023-05-08T02:19:56.086Z,98707.53
2023-05-08T02:22:46.110Z,98705.16
2023-05-08T02:25:36.405Z,98706.16
2023-05-08T02:28:25.352Z,98712.66
2023-05-08T02:31:13.567Z,98710.16
2023-05-08T02:34:02.572Z,98714.63
2023-05-08T02:36:51.638Z,98717.44
2023-05-08T02:39:40.522Z,98717.91
2023-05-08T02:42:29.848Z,98721.03
2023-05-08T02:45:17.751Z,98720.38
2023-05-08T02:48:14.100Z,98723.50
2023-05-08T02:51:15.048Z,98717.50
2023-05-08T02:54:10.279Z,98719.66
2023-05-08T02:57:04.912Z,98723.28
2023-05-08T03:00:01.912Z,98725.28
2023-05-08T03:02:53.882Z,98726.56
2023-05-08T03:05:48.660Z,98736.47
2023-05-08T03:08:38.126Z,98733.28
2023-05-08T03:11:34.647Z,98735.09
2023-05-08T03:14:27.671Z,98735.00
2023-05-08T03:17:19.832Z,98727.81
2023-05-08T03:20:13.459Z,98737.13
2023-05-08T03:23:03.954Z,98730.72
2023-05-08T03:25:53.833Z,98741.22
2023-05-08T03:28:42.282Z,98735.59
2023-05-08T03:31:33.090Z,98732.66
2023-05-08T03:34:24.663Z,98738.28
2023-05-08T03:37:13.076Z,98742.19
2023-05-08T03:40:01.575Z,98747.00
2023-05-08T03:42:49.978Z,98751.25
2023-05-08T03:45:39.454Z,98747.00
2023-05-08T03:48:28.554Z,98741.84
2023-05-08T03:51:18.255Z,98748.13
2023-05-08T03:54:06.291Z,98751.25
2023-05-08T03:56:55.404Z,98750.16
2023-05-08T03:59:52.068Z,98751.56
2023-05-08T04:02:48.075Z,98750.56
2023-05-08T04:05:39.131Z,98742.56
2023-05-08T04:08:32.669Z,98745.69
2023-05-08T04:11:26.808Z,98748.50
2023-05-08T04:14:20.557Z,98747.78
2023-05-08T04:17:13.881Z,98752.28
2023-05-08T04:20:05.749Z,98759.00
2023-05-08T04:22:58.226Z,98752.81
2023-05-08T04:25:49.644Z,98754.22
2023-05-08T04:28:37.651Z,98753.91
2023-05-08T04:31:27.921Z,98759.06
2023-05-08T04:34:16.217Z,98762.56
2023-05-08T04:37:04.574Z,98757.94
2023-05-08T04:39:53.446Z,98764.94
2023-05-08T04:42:43.563Z,98764.94
2023-05-08T04:45:31.406Z,98763.28
2023-05-08T04:48:21.803Z,98767.44
2023-05-08T04:51:09.834Z,98770.97
2023-05-08T04:53:57.771Z,98775.59
2023-05-08T04:56:45.681Z,98784.56
2023-05-08T04:59:35.128Z,98789.28
2023-05-08T05:02:23.219Z,98785.63
2023-05-08T05:05:11.839Z,98787.22
2023-05-08T05:07:59.860Z,98786.50
2023-05-08T05:10:47.814Z,98787.69
2023-05-08T05:13:35.938Z,98786.41
2023-05-08T05:16:25.499Z,98785.81
2023-05-08T05:19:13.439Z,98793.38
2023-05-08T05:22:01.172Z,98789.13
2023-05-08T05:24:49.009Z,98792.69
2023-05-08T05:27:37.572Z,98799.19
2023-05-08T05:30:25.480Z,98798.63
2023-05-08T05:33:16.760Z,98804.34
2023-05-08T05:36:04.996Z,98801.94
2023-05-08T05:38:55.600Z,98798.88
2023-05-08T05:41:44.257Z,98801.78
2023-05-08T05:44:32.314Z,98798.03
2023-05-08T05:47:20.594Z,98802.44
2023-05-08T05:50:11.345Z,98805.19
2023-05-08T05:52:59.078Z,98800.59
2023-05-08T05:55:47.036Z,98802.69
2023-05-08T05:58:35.382Z,98804.41
2023-05-08T06:01:24.625Z,98800.41
2023-05-08T06:04:12.413Z,98812.41
2023-05-08T06:07:01.586Z,98808.50
2023-05-08T06:09:51.056Z,98803.19
2023-05-08T06:12:39.129Z,98816.59
2023-05-08T06:15:27.106Z,98811.16
2023-05-08T06:18:15.744Z,98811.56
2023-05-08T06:21:03.634Z,98810.63
2023-05-08T06:23:53.158Z,98813.81
2023-05-08T06:26:41.641Z,98814.53
2023-05-08T06:29:29.468Z,98815.22
2023-05-08T06:32:17.644Z,98815.97
2023-05-08T06:35:05.639Z,98816.31
2023-05-08T06:37:53.709Z,98810.16
2023-05-08T06:40:44.968Z,98812.69
2023-05-08T06:43:32.697Z,98810.56
2023-05-08T06:46:21.692Z,98814.75
2023-05-08T06:49:09.681Z,98806.38
2023-05-08T06:51:58.233Z,98797.19
2023-05-08T06:54:46.120Z,98798.84
2023-05-08T06:57:35.245Z,98801.16
2023-05-08T07:00:23.187Z,98798.59
2023-05-08T07:03:11.670Z,98800.44
2023-05-08T07:05:59.636Z,98803.34
2023-05-08T07:08:47.592Z,98800.31
2023-05-08T07:11:35.508Z,98798.91
2023-05-08T07:14:24.982Z,98798.72
2023-05-08T07:17:12.752Z,98799.91
2023-05-08T07:20:00.720Z,98798.09
2023-05-08T07:22:48.562Z,98805.81
2023-05-08T07:25:36.786Z,98802.06
2023-05-08T07:28:25.101Z,98795.78
2023-05-08T07:31:14.420Z,98799.34
2023-05-08T07:34:02.540Z,98802.28
2023-05-08T07:36:50.393Z,98797.50
2023-05-08T07:39:38.264Z,98797.41
2023-05-08T07:42:26.635Z,98800.47
2023-05-08T07:45:15.503Z,98795.66
2023-05-08T07:48:05.420Z,98796.53
2023-05-08T07:50:53.382Z,98797.53
2023-05-08T07:53:41.258Z,98790.94
2023-05-08T07:56:29.391Z,98801.25
2023-05-08T07:59:17.466Z,98802.69
2023-05-08T08:02:05.524Z,98792.44
2023-05-08T08:04:54.979Z,98802.69
2023-05-08T08:07:43.079Z,98796.78
2023-05-08T08:10:31.518Z,98797.19
2023-05-08T08:13:19.526Z,98792.41
2023-05-08T08:16:08.275Z,98800.94
2023-05-08T08:18:56.317Z,98798.44
2023-05-08T08:21:46.286Z,98804.09
2023-05-08T08:24:34.349Z,98792.97
2023-05-08T08:27:22.259Z,98790.97
2023-05-08T08:30:17.715Z,98795.44
2023-05-08T08:33:06.508Z,98794.56
2023-05-08T08:35:54.533Z,98788.44
2023-05-08T08:38:43.859Z,98789.69
2023-05-08T08:41:33.320Z,98783.00
2023-05-08T08:44:21.377Z,98786.53
2023-05-08T08:47:13.098Z,98795.66
2023-05-08T08:50:04.062Z,98786.53
2023-05-08T08:53:02.494Z,98783.56
2023-05-08T08:55:55.527Z,98785.44
2023-05-08T08:58:51.078Z,98781.88
2023-05-08T09:01:42.176Z,98783.28
2023-05-08T09:04:31.967Z,98783.63
2023-05-08T09:07:20.984Z,98781.59
2023-05-08T09:10:15.188Z,98780.03
2023-05-08T09:13:05.630Z,98775.69
2023-05-08T09:15:56.343Z,98775.81
2023-05-08T09:18:44.554Z,98777.31
2023-05-08T09:21:32.960Z,98780.66
2023-05-08T09:24:21.099Z,98777.38
2023-05-08T09:27:22.166Z,98779.03
2023-05-08T09:30:12.733Z,98773.84
2023-05-08T09:33:06.282Z,98774.91
2023-05-08T09:35:54.702Z,98779.47
2023-05-08T09:38:44.013Z,98776.53
2023-05-08T09:41:31.931Z,98774.03
2023-05-08T09:44:22.391Z,98772.41
2023-05-08T09:47:16.109Z,98775.06
2023-05-08T09:50:05.103Z,98772.41
2023-05-08T09:52:54.273Z,98775.50
2023-05-08T09:55:51.993Z,98777.19
2023-05-08T09:58:41.205Z,98776.97
2023-05-08T10:01:34.141Z,98779.03
2023-05-08T10:04:35.343Z,98780.47
2023-05-08T10:07:30.406Z,98771.78
2023-05-08T10:10:26.124Z,98780.00
2023-05-08T10:13:14.526Z,98773.66
2023-05-08T10:16:02.819Z,98774.78
2023-05-08T10:18:51.955Z,98778.50
2023-05-08T10:21:44.598Z,98773.75
2023-05-08T10:24:34.825Z,98770.13
2023-05-08T10:27:31.966Z,98769.47
2023-05-08T10:30:25.258Z,98775.69
2023-05-08T10:33:16.084Z,98776.75
2023-05-08T10:36:04.426Z,98776.59
2023-05-08T10:38:55.258Z,98767.69
2023-05-08T10:41:43.750Z,98776.44
2023-05-08T10:44:32.822Z,98781.72
2023-05-08T10:47:26.231Z,98760.81
2023-05-08T10:50:27.007Z,98763.28
2023-05-08T10:53:20.035Z,98761.78
2023-05-08T10:56:10.011Z,98764.22
2023-05-08T10:58:58.825Z,98762.31
2023-05-08T11:01:50.226Z,98759.19
2023-05-08T11:04:38.372Z,98757.94
2023-05-08T11:07:54.310Z,98747.59
2023-05-08T11:10:43.617Z,98758.94
2023-05-08T11:13:36.146Z,98749.00
2023-05-08T11:16:57.563Z,98748.69
2023-05-08T11:19:58.163Z,98745.19
2023-05-08T11:22:49.578Z,98740.28
2023-05-08T11:25:47.290Z,98740.19
2023-05-08T11:28:40.621Z,98751.28
2023-05-08T11:31:51.520Z,98742.91
2023-05-08T11:34:49.901Z,98744.38
2023-05-08T11:37:38.306Z,98741.78
2023-05-08T11:40:49.980Z,98738.56
2023-05-08T11:44:14.880Z,98738.78
2023-05-08T11:47:06.513Z,98733.41
2023-05-08T11:49:57.138Z,98736.81
2023-05-08T11:52:45.043Z,98742.75
2023-05-08T11:55:33.256Z,98737.81
2023-05-08T11:58:21.641Z,98736.25
2023-05-08T12:01:11.102Z,98745.94
2023-05-08T12:04:03.129Z,98736.56
2023-05-08T12:06:51.728Z,98739.09
2023-05-08T12:09:39.741Z,98739.53
2023-05-08T12:12:38.040Z,98738.72
2023-05-08T12:15:25.708Z,98737.53
2023-05-08T12:18:16.151Z,98735.38
2023-05-08T12:21:04.183Z,98735.59
2023-05-08T12:23:52.179Z,98732.88
2023-05-08T12:26:40.367Z,98728.28
2023-05-08T12:29:28.147Z,98727.69
2023-05-08T12:32:16.340Z,98738.72
2023-05-08T12:35:07.596Z,98730.06
2023-05-08T12:37:55.241Z,98732.78
2023-05-08T12:40:44.495Z,98728.31
2023-05-08T12:43:35.929Z,98735.78
2023-05-08T12:46:23.679Z,98727.84
2023-05-08T12:49:12.846Z,98733.63
2023-05-08T12:52:06.821Z,98734.09
2023-05-08T12:54:54.872Z,98734.56
2023-05-08T12:57:45.049Z,98727.91
2023-05-08T13:00:39.288Z,98737.06
2023-05-08T13:03:28.826Z,98724.28
2023-05-08T13:06:27.002Z,98732.56
2023-05-08T13:09:26.537Z,98728.66
2023-05-08T13:12:14.968Z,98724.25
2023-05-08T13:15:04.753Z,98723.00
2023-05-08T13:17:53.597Z,98726.28
2023-05-08T13:20:41.549Z,98714.41
2023-05-08T13:23:29.486Z,98704.50
2023-05-08T13:26:18.418Z,98702.31
2023-05-08T13:29:06.232Z,98720.25
2023-05-08T13:31:54.276Z,98713.63
2023-05-08T13:34:49.799Z,98700.81
2023-05-08T13:37:41.945Z,98698.50
2023-05-08T13:40:30.265Z,98701.97
2023-05-08T13:43:19.443Z,98703.34
2023-05-08T13:46:07.344Z,98686.03
2023-05-08T13:48:55.196Z,98696.91
2023-05-08T13:51:49.115Z,98695.25
2023-05-08T13:54:37.656Z,98687.19
2023-05-08T13:57:28.184Z,98682.75
2023-05-08T14:00:19.141Z,98687.38
2023-05-08T14:03:07.165Z,98683.88
2023-05-08T14:05:55.173Z,98681.50
2023-05-08T14:08:46.582Z,98680.25
2023-05-08T14:11:36.330Z,98682.97
2023-05-08T14:14:24.258Z,98683.13
2023-05-08T14:17:13.612Z,98680.03
2023-05-08T14:20:01.708Z,98680.88
2023-05-08T14:22:49.748Z,98673.97
2023-05-08T14:25:37.813Z,98669.59
2023-05-08T14:28:26.498Z,98671.41
2023-05-08T14:31:14.424Z,98666.66
2023-05-08T14:34:03.724Z,98665.69
2023-05-08T14:36:51.774Z,98665.38
2023-05-08T14:39:40.049Z,98663.88
2023-05-08T14:42:29.898Z,98661.69
2023-05-08T14:45:17.929Z,98653.13
2023-05-08T14:48:07.704Z,98653.00
2023-05-08T14:50:58.439Z,98651.44
2023-05-08T14:53:46.369Z,98643.91
2023-05-08T14:59:49.342Z,98657.03
2023-05-08T15:02:42.541Z,98654.50
2023-05-08T15:05:30.579Z,98655.94
2023-05-08T15:08:20.171Z,98663.34
2023-05-08T15:11:08.212Z,98663.66
2023-05-08T15:14:01.564Z,98670.03
2023-05-08T15:16:49.749Z,98659.81
2023-05-08T15:19:37.666Z,98663.88
2023-05-08T15:22:26.555Z,98661.28
2023-05-08T15:25:17.613Z,98654.16
2023-05-08T15:28:05.952Z,98654.22
2023-05-08T15:30:53.873Z,98662.03
2023-05-08T15:33:44.690Z,98660.63
2023-05-08T15:36:34.142Z,98650.31
2023-05-08T15:39:21.736Z,98657.31
2023-05-08T15:42:10.995Z,98650.84
2023-05-08T15:44:58.783Z,98661.31
2023-05-08T15:47:47.116Z,98654.44
2023-05-08T15:50:34.969Z,98653.88
2023-05-08T15:53:22.983Z,98651.22
2023-05-08T15:56:11.921Z,98657.22
2023-05-08T15:59:01.278Z,98650.88
2023-05-08T16:01:50.306Z,98650.47
2023-05-08T16:04:39.374Z,98644.69
2023-05-08T16:07:27.222Z,98634.97
2023-05-08T16:10:15.249Z,98639.50
2023-05-08T16:13:03.285Z,98640.94
2023-05-08T16:15:52.889Z,98641.63
2023-05-08T16:18:40.678Z,98643.03
2023-05-08T16:21:28.574Z,98637.38
2023-05-08T16:24:16.598Z,98640.66
2023-05-08T16:27:04.503Z,98638.63
2023-05-08T16:29:52.489Z,98634.97
2023-05-08T16:32:41.729Z,98634.97
2023-05-08T16:35:30.189Z,98645.63
2023-05-08T16:38:18.178Z,98648.56
2023-05-08T16:41:09.083Z,98645.91
2023-05-08T16:43:56.790Z,98648.81
2023-05-08T16:46:44.886Z,98648.06
2023-05-08T16:49:34.377Z,98660.88
2023-05-08T16:52:22.633Z,98657.44
2023-05-08T16:55:11.457Z,98660.97
2023-05-08T16:57:59.123Z,98655.69
2023-05-08T17:00:47.436Z,98660.38
2023-05-08T17:03:35.746Z,98666.66
2023-05-08T17:06:24.717Z,98667.16
2023-05-08T17:09:12.479Z,98663.31
2023-05-08T17:12:01.875Z,98664.97
2023-05-08T17:14:49.954Z,98666.09
2023-05-08T17:17:38.041Z,98667.91
2023-05-08T17:20:26.221Z,98665.84
2023-05-08T17:23:15.338Z,98668.00
2023-05-08T17:26:03.237Z,98670.31
2023-05-08T17:28:51.231Z,98668.69
2023-05-08T17:31:39.664Z,98667.91
2023-05-08T17:34:27.826Z,98667.66
2023-05-08T17:37:15.742Z,98666.03
2023-05-08T17:40:04.992Z,98674.88
2023-05-08T17:42:55.307Z,98670.97
2023-05-08T17:45:44.146Z,98681.22
2023-05-08T17:48:32.097Z,98679.19
2023-05-08T17:51:20.295Z,98688.75
2023-05-08T17:54:08.484Z,98694.03
2023-05-08T17:56:58.028Z,98690.47
2023-05-08T17:59:45.764Z,98693.63
2023-05-08T18:02:33.718Z,98698.03
2023-05-08T18:05:22.089Z,98697.59
2023-05-08T18:08:09.839Z,98701.16
2023-05-08T18:10:57.731Z,98700.09
2023-05-08T18:13:47.182Z,98704.41
2023-05-08T18:16:35.417Z,98703.75
2023-05-08T18:19:23.564Z,98713.94
2023-05-08T18:22:11.228Z,98715.59
2023-05-08T18:25:00.526Z,98719.50
2023-05-08T18:27:49.987Z,98719.66
2023-05-08T18:30:40.187Z,98714.19
2023-05-08T18:33:28.103Z,98709.09
2023-05-08T18:36:16.187Z,98713.41
2023-05-08T18:39:04.477Z,98717.53
2023-05-08T18:41:52.545Z,98715.81
2023-05-08T18:44:40.965Z,98713.31
2023-05-08T18:47:30.454Z,98718.00
2023-05-08T18:50:18.107Z,98721.88
2023-05-08T18:53:06.672Z,98721.41
2023-05-08T18:55:54.615Z,98733.09
2023-05-08T18:58:42.750Z,98730.16
2023-05-08T19:01:30.809Z,98736.47
2023-05-08T19:04:19.954Z,98730.16
2023-05-08T19:07:07.987Z,98730.50
2023-05-08T19:09:56.596Z,98739.94
2023-05-08T19:12:44.448Z,98734.63
2023-05-08T19:15:32.444Z,98746.38
2023-05-08T19:18:20.348Z,98739.69
2023-05-08T19:21:09.553Z,98748.50
2023-05-08T19:23:57.452Z,98744.13
2023-05-08T19:26:45.536Z,98747.66
2023-05-08T19:29:34.860Z,98739.53
2023-05-08T19:32:23.698Z,98744.78
2023-05-08T19:35:11.983Z,98746.19
2023-05-08T19:38:03.780Z,98746.09
2023-05-08T19:40:56.471Z,98744.97
2023-05-08T19:43:45.033Z,98741.09
2023-05-08T19:46:33.154Z,98740.84
2023-05-08T19:49:20.959Z,98743.59
2023-05-08T19:52:09.136Z,98748.53
2023-05-08T19:54:58.548Z,98749.09
2023-05-08T19:57:46.762Z,98745.44
2023-05-08T20:00:34.451Z,98754.28
2023-05-08T20:03:22.391Z,98756.53
2023-05-08T20:06:10.352Z,98759.41
2023-05-08T20:08:58.330Z,98760.34
2023-05-08T20:11:48.055Z,98759.88
2023-05-08T20:14:35.672Z,98761.44
2023-05-08T20:17:23.698Z,98762.97
2023-05-08T20:20:13.650Z,98757.97
2023-05-08T20:23:01.785Z,98751.63
2023-05-08T20:25:49.516Z,98747.66
2023-05-08T20:28:38.742Z,98751.72
2023-05-08T20:31:27.812Z,98753.09
2023-05-08T20:34:16.030Z,98749.94
2023-05-08T20:37:03.901Z,98750.47
2023-05-08T20:39:51.813Z,98749.16
2023-05-08T20:42:40.998Z,98746.16
2023-05-08T20:45:30.345Z,98743.22
2023-05-08T20:48:18.146Z,98740.22
2023-05-08T20:51:06.255Z,98735.56
2023-05-08T20:53:54.231Z,98734.25
2023-05-08T20:56:42.611Z,98736.63
2023-05-08T20:59:30.890Z,98731.84
2023-05-08T21:02:20.201Z,98729.00
2023-05-08T21:05:09.258Z,98735.56
2023-05-08T21:08:00.139Z,98730.56
2023-05-08T21:10:47.896Z,98727.41
2023-05-08T21:13:36.087Z,98719.06
2023-05-08T21:16:26.224Z,98716.06
2023-05-08T21:19:17.437Z,98716.59
2023-05-08T21:22:07.455Z,98718.81
2023-05-08T21:24:55.211Z,98715.63
2023-05-08T21:27:43.382Z,98715.81
2023-05-08T21:30:31.394Z,98715.00
2023-05-08T21:33:19.882Z,98709.81
2023-05-08T21:36:09.571Z,98708.28
2023-05-08T21:38:57.708Z,98710.34
2023-05-08T21:41:45.546Z,98705.50
2023-05-08T21:44:33.397Z,98709.72
2023-05-08T21:47:22.470Z,98700.16
2023-05-08T21:50:11.187Z,98706.72
2023-05-08T21:53:00.639Z,98704.38
2023-05-08T21:55:48.228Z,98701.88
2023-05-08T21:58:36.280Z,98701.25
2023-05-08T22:01:24.261Z,98698.91
2023-05-08T22:04:12.201Z,98698.22
2023-05-08T22:07:00.217Z,98694.88
2023-05-08T22:09:49.537Z,98692.56
2023-05-08T22:12:37.547Z,98697.25
2023-05-08T22:15:29.799Z,98692.25
2023-05-08T22:18:18.399Z,98697.94
2023-05-08T22:21:06.769Z,98690.44
2023-05-08T22:23:54.612Z,98697.63
2023-05-08T22:26:43.897Z,98699.81
2023-05-08T22:29:31.909Z,98708.38
2023-05-08T22:32:19.663Z,98707.69
2023-05-08T22:35:08.366Z,98699.03
2023-05-08T22:37:57.304Z,98702.03
2023-05-08T22:40:47.644Z,98704.72
2023-05-08T22:43:36.949Z,98693.50
2023-05-08T22:46:25.171Z,98699.03
2023-05-08T22:49:13.164Z,98699.38
2023-05-08T22:52:01.535Z,98697.03
2023-05-08T22:54:49.327Z,98696.38
2023-05-08T22:57:37.237Z,98690.38
2023-05-08T23:00:26.728Z,98690.03
2023-05-08T23:03:16.441Z,98687.53
2023-05-08T23:06:04.122Z,98680.84
2023-05-08T23:08:52.073Z,98685.34
2023-05-08T23:11:40.150Z,98682.03
2023-05-08T23:14:28.266Z,98683.06
2023-05-08T23:17:17.590Z,98680.72
2023-05-08T23:20:06.334Z,98685.38
2023-05-08T23:22:54.028Z,98680.22
2023-05-08T23:25:42.041Z,98674.31
2023-05-08T23:28:30.072Z,98677.34
2023-05-08T23:31:19.200Z,98678.34
2023-05-08T23:34:09.264Z,98669.69
2023-05-08T23:36:57.134Z,98675.38
2023-05-08T23:39:45.108Z,98671.84
2023-05-08T23:42:33.176Z,98663.31
2023-05-08T23:45:21.150Z,98663.31
2023-05-08T23:48:08.970Z,98655.63
2023-05-08T23:50:58.228Z,98658.31
2023-05-08T23:53:46.420Z,98655.16
2023-05-08T23:56:35.003Z,98644.63
2023-05-08T23:59:22.862Z,98652.97
